createdAt,value
2022-10-07T00:00:51.156Z,-23412.63
2022-10-07T00:03:18.516Z,-23410.94
2022-10-07T00:05:45.283Z,-23410.69
2022-10-07T00:08:12.470Z,-23408.25
2022-10-07T00:10:41.014Z,-23406.81
2022-10-07T00:13:10.106Z,-23403.41
2022-10-07T00:15:37.163Z,-23407.28
2022-10-07T00:18:03.942Z,-23405.34
2022-10-07T00:20:30.709Z,-23402.69
2022-10-07T00:22:57.371Z,-23410.94
2022-10-07T00:25:24.107Z,-23411.66
2022-10-07T00:27:50.943Z,-23416.25
2022-10-07T00:30:18.084Z,-23419.41
2022-10-07T00:32:44.702Z,-23421.81
2022-10-07T00:35:11.606Z,-23416.97
2022-10-07T00:37:43.178Z,-23416.50
2022-10-07T00:40:12.706Z,-23420.88
2022-10-07T00:42:43.043Z,-23419.66
2022-10-07T00:45:15.137Z,-23419.41
2022-10-07T00:47:45.914Z,-23412.38
2022-10-07T00:50:20.693Z,-23422.31
2022-10-07T00:52:51.901Z,-23427.88
2022-10-07T00:55:22.533Z,-23434.91
2022-10-07T00:57:51.544Z,-23419.88
2022-10-07T01:00:19.178Z,-23422.31
2022-10-07T01:02:46.753Z,-23419.66
2022-10-07T01:05:14.277Z,-23425.94
2022-10-07T01:07:42.581Z,-23417.47
2022-10-07T01:10:12.060Z,-23418.91
2022-10-07T01:12:57.023Z,-23426.44
2022-10-07T01:15:34.676Z,-23414.06
2022-10-07T01:18:17.531Z,-23416.25
2022-10-07T01:20:54.894Z,-23415.28
2022-10-07T01:23:37.243Z,-23413.81
2022-10-07T01:26:23.670Z,-23421.34
2022-10-07T01:29:00.975Z,-23417.47
2022-10-07T01:31:35.698Z,-23408.50
2022-10-07T01:34:04.300Z,-23413.09
2022-10-07T01:36:33.325Z,-23396.88
2022-10-07T01:39:07.578Z,-23396.16
2022-10-07T01:41:36.870Z,-23403.91
2022-10-07T01:44:03.981Z,-23408.75
2022-10-07T01:46:31.441Z,-23408.50
2022-10-07T01:48:58.069Z,-23411.66
2022-10-07T01:51:28.597Z,-23404.38
2022-10-07T01:54:07.677Z,-23402.44
2022-10-07T01:56:50.744Z,-23406.31
2022-10-07T01:59:36.544Z,-23385.47
2022-10-07T02:02:34.273Z,-23382.81
2022-10-07T02:05:15.265Z,-23384.25
2022-10-07T02:08:28.569Z,-23385.00
2022-10-07T02:11:21.857Z,-23395.66
2022-10-07T02:14:01.416Z,-23402.19
2022-10-07T02:16:39.981Z,-23398.06
2022-10-07T02:19:29.875Z,-23389.59
2022-10-07T02:21:58.286Z,-23396.63
2022-10-07T02:24:28.398Z,-23403.41
2022-10-07T02:26:58.081Z,-23399.03
2022-10-07T02:29:25.853Z,-23392.75
2022-10-07T02:31:53.745Z,-23389.84
2022-10-07T02:34:22.638Z,-23386.69
2022-10-07T02:36:56.215Z,-23378.69
2022-10-07T02:39:22.732Z,-23386.44
2022-10-07T02:41:50.718Z,-23382.56
2022-10-07T02:44:54.802Z,-23389.34
2022-10-07T02:47:24.396Z,-23392.50
2022-10-07T02:49:53.501Z,-23396.38
2022-10-07T02:52:21.690Z,-23398.56
2022-10-07T02:55:01.718Z,-23400.03
2022-10-07T02:57:32.117Z,-23405.09
2022-10-07T03:00:01.299Z,-23400.03
2022-10-07T03:02:36.320Z,-23376.75
2022-10-07T03:05:02.889Z,-23361.72
2022-10-07T03:07:29.473Z,-23360.28
2022-10-07T03:09:56.334Z,-23372.16
2022-10-07T03:12:22.902Z,-23382.56
2022-10-07T03:14:50.142Z,-23360.53
2022-10-07T03:17:19.860Z,-23361.72
2022-10-07T03:19:46.490Z,-23362.47
2022-10-07T03:22:12.976Z,-23367.06
2022-10-07T03:24:40.557Z,-23372.41
2022-10-07T03:27:07.641Z,-23372.41
2022-10-07T03:29:35.709Z,-23382.31
2022-10-07T03:32:02.571Z,-23393.25
2022-10-07T03:34:30.418Z,-23387.41
2022-10-07T03:36:57.322Z,-23390.09
2022-10-07T03:39:23.997Z,-23391.78
2022-10-07T03:41:51.606Z,-23381.13
2022-10-07T03:44:19.476Z,-23372.88
2022-10-07T03:46:49.963Z,-23364.88
2022-10-07T03:49:16.615Z,-23385.22
2022-10-07T03:51:43.216Z,-23381.34
2022-10-07T03:54:09.847Z,-23373.38
2022-10-07T03:56:36.437Z,-23370.94
2022-10-07T03:59:03.441Z,-23379.19
2022-10-07T04:01:31.791Z,-23365.84
2022-10-07T04:04:00.943Z,-23378.94
2022-10-07T04:06:29.464Z,-23381.84
2022-10-07T04:08:56.127Z,-23373.38
2022-10-07T04:11:24.341Z,-23379.44
2022-10-07T04:13:53.560Z,-23368.28
2022-10-07T04:16:20.249Z,-23358.09
2022-10-07T04:18:47.368Z,-23371.91
2022-10-07T04:21:13.992Z,-23377.72
2022-10-07T04:23:42.390Z,-23374.34
2022-10-07T04:26:10.990Z,-23355.44
2022-10-07T04:28:38.100Z,-23348.91
2022-10-07T04:31:06.745Z,-23348.41
2022-10-07T04:33:33.372Z,-23344.28
2022-10-07T04:36:09.892Z,-23339.94
2022-10-07T04:38:36.515Z,-23333.88
2022-10-07T04:41:05.405Z,-23337.03
2022-10-07T04:43:34.156Z,-23335.56
2022-10-07T04:46:14.265Z,-23330.47
2022-10-07T04:48:44.422Z,-23332.19
2022-10-07T04:51:11.435Z,-23338.00
2022-10-07T04:53:38.784Z,-23359.81
2022-10-07T04:56:06.441Z,-23352.28
2022-10-07T04:58:33.013Z,-23332.91
2022-10-07T05:01:00.757Z,-23339.22
2022-10-07T05:03:29.592Z,-23333.88
2022-10-07T05:06:05.336Z,-23341.16
2022-10-07T05:08:33.143Z,-23345.28
2022-10-07T05:11:01.277Z,-23343.34
2022-10-07T05:13:28.414Z,-23337.50
2022-10-07T05:15:57.705Z,-23334.84
2022-10-07T05:18:26.356Z,-23322.97
2022-10-07T05:20:53.452Z,-23332.66
2022-10-07T05:23:27.133Z,-23332.91
2022-10-07T05:26:04.970Z,-23350.34
2022-10-07T05:28:31.843Z,-23339.94
2022-10-07T05:31:09.257Z,-23333.88
2022-10-07T05:33:36.421Z,-23339.22
2022-10-07T05:36:04.182Z,-23330.47
2022-10-07T05:38:30.852Z,-23336.31
2022-10-07T05:40:59.648Z,-23326.38
2022-10-07T05:43:27.773Z,-23339.22
2022-10-07T05:46:15.243Z,-23339.44
2022-10-07T05:48:46.012Z,-23347.94
2022-10-07T05:51:14.157Z,-23353.25
2022-10-07T05:53:43.016Z,-23361.97
2022-10-07T05:56:12.695Z,-23364.88
2022-10-07T05:58:39.821Z,-23356.66
2022-10-07T06:01:13.807Z,-23368.03
2022-10-07T06:03:41.577Z,-23364.63
2022-10-07T06:06:09.154Z,-23358.34
2022-10-07T06:08:36.601Z,-23368.53
2022-10-07T06:11:23.304Z,-23367.56
2022-10-07T06:13:51.250Z,-23357.38
2022-10-07T06:16:18.055Z,-23357.88
2022-10-07T06:18:45.972Z,-23370.94
2022-10-07T06:21:12.683Z,-23363.44
2022-10-07T06:23:39.446Z,-23354.97
2022-10-07T06:26:08.335Z,-23357.38
2022-10-07T06:28:39.722Z,-23363.44
2022-10-07T06:31:09.526Z,-23379.44
2022-10-07T06:33:36.162Z,-23374.81
2022-10-07T06:36:04.694Z,-23380.16
2022-10-07T06:38:31.499Z,-23372.41
2022-10-07T06:40:59.132Z,-23373.84
2022-10-07T06:43:27.325Z,-23378.44
2022-10-07T06:45:58.927Z,-23388.38
2022-10-07T06:48:26.006Z,-23403.91
2022-10-07T06:50:53.732Z,-23387.19
2022-10-07T06:53:20.553Z,-23391.78
2022-10-07T06:55:47.398Z,-23380.16
2022-10-07T06:58:13.887Z,-23383.53
2022-10-07T07:00:40.682Z,-23382.09
2022-10-07T07:03:07.335Z,-23403.91
2022-10-07T07:05:41.491Z,-23424.97
2022-10-07T07:08:11.594Z,-23435.88
2022-10-07T07:10:42.989Z,-23442.44
2022-10-07T07:13:10.565Z,-23416.97
2022-10-07T07:15:38.082Z,-23411.66
2022-10-07T07:18:07.173Z,-23406.06
2022-10-07T07:20:37.273Z,-23423.28
2022-10-07T07:23:05.513Z,-23402.94
2022-10-07T07:25:35.187Z,-23414.31
2022-10-07T07:28:02.099Z,-23428.13
2022-10-07T07:30:29.508Z,-23414.56
2022-10-07T07:32:56.497Z,-23420.88
2022-10-07T07:35:24.548Z,-23416.00
2022-10-07T07:37:51.214Z,-23419.88
2022-10-07T07:40:18.901Z,-23430.56
2022-10-07T07:42:45.921Z,-23444.13
2022-10-07T07:45:12.825Z,-23438.53
2022-10-07T07:47:39.558Z,-23441.72
2022-10-07T07:50:07.883Z,-23451.88
2022-10-07T07:52:35.263Z,-23446.53
2022-10-07T07:55:02.674Z,-23435.88
2022-10-07T07:57:30.745Z,-23426.44
2022-10-07T07:59:57.865Z,-23419.88
2022-10-07T08:02:24.516Z,-23422.78
2022-10-07T08:04:51.148Z,-23442.44
2022-10-07T08:07:17.776Z,-23419.88
2022-10-07T08:09:44.310Z,-23429.81
2022-10-07T08:12:11.535Z,-23436.13
2022-10-07T08:14:38.234Z,-23448.97
2022-10-07T08:17:04.726Z,-23459.16
2022-10-07T08:19:31.216Z,-23450.91
2022-10-07T08:21:58.324Z,-23467.88
2022-10-07T08:24:28.007Z,-23468.84
2022-10-07T08:26:54.732Z,-23447.53
2022-10-07T08:29:21.894Z,-23452.38
2022-10-07T08:31:49.400Z,-23446.06
2022-10-07T08:34:16.185Z,-23459.16
2022-10-07T08:36:47.397Z,-23451.41
2022-10-07T08:39:15.059Z,-23457.69
2022-10-07T08:41:41.493Z,-23462.06
2022-10-07T08:44:18.512Z,-23465.94
2022-10-07T08:46:53.526Z,-23454.31
2022-10-07T08:49:36.650Z,-23456.00
2022-10-07T08:52:05.965Z,-23460.59
2022-10-07T08:54:33.779Z,-23478.78
2022-10-07T08:57:10.115Z,-23475.16
2022-10-07T08:59:41.697Z,-23498.91
2022-10-07T09:02:30.794Z,-23510.53
2022-10-07T09:05:02.379Z,-23513.22
2022-10-07T09:07:39.701Z,-23503.28
2022-10-07T09:10:09.251Z,-23511.03
2022-10-07T09:12:49.863Z,-23513.69
2022-10-07T09:15:23.254Z,-23517.81
2022-10-07T09:17:56.522Z,-23530.91
2022-10-07T09:20:29.117Z,-23528.25
2022-10-07T09:22:58.985Z,-23524.13
2022-10-07T09:25:29.122Z,-23523.63
2022-10-07T09:27:55.791Z,-23540.13
2022-10-07T09:30:23.870Z,-23547.63
2022-10-07T09:32:56.477Z,-23557.59
2022-10-07T09:35:25.677Z,-23540.13
2022-10-07T09:37:56.827Z,-23538.19
2022-10-07T09:41:03.617Z,-23542.06
2022-10-07T09:43:33.959Z,-23551.03
2022-10-07T09:46:01.700Z,-23553.22
2022-10-07T09:48:33.311Z,-23548.38
2022-10-07T09:51:25.149Z,-23554.44
2022-10-07T09:54:04.813Z,-23552.72
2022-10-07T09:56:45.728Z,-23548.38
2022-10-07T09:59:30.411Z,-23549.81
2022-10-07T10:01:59.896Z,-23561.47
2022-10-07T10:04:35.645Z,-23557.09
2022-10-07T10:07:26.207Z,-23561.47
2022-10-07T10:09:56.276Z,-23567.53
2022-10-07T10:12:24.665Z,-23573.09
2022-10-07T10:14:53.335Z,-23571.16
2022-10-07T10:17:29.191Z,-23578.69
2022-10-07T10:20:08.625Z,-23577.47
2022-10-07T10:22:35.248Z,-23581.84
2022-10-07T10:25:20.131Z,-23586.69
2022-10-07T10:27:58.922Z,-23586.44
2022-10-07T10:30:25.966Z,-23585.47
2022-10-07T10:33:19.240Z,-23582.56
2022-10-07T10:36:01.084Z,-23578.69
2022-10-07T10:38:34.075Z,-23582.06
2022-10-07T10:41:15.110Z,-23582.81
2022-10-07T10:43:52.366Z,-23589.84
2022-10-07T10:46:51.766Z,-23590.09
2022-10-07T10:49:19.817Z,-23599.78
2022-10-07T10:52:15.339Z,-23605.84
2022-10-07T10:54:43.326Z,-23609.25
2022-10-07T10:57:23.184Z,-23606.31
2022-10-07T10:59:49.991Z,-23615.31
2022-10-07T11:02:37.811Z,-23626.47
2022-10-07T11:05:25.930Z,-23634.97
2022-10-07T11:08:12.013Z,-23645.38
2022-10-07T11:10:55.431Z,-23629.38
2022-10-07T11:13:43.523Z,-23630.59
2022-10-07T11:16:22.384Z,-23623.06
2022-10-07T11:18:48.878Z,-23627.19
2022-10-07T11:21:51.810Z,-23633.25
2022-10-07T11:24:41.265Z,-23642.47
2022-10-07T11:27:14.986Z,-23644.91
2022-10-07T11:29:50.067Z,-23651.69
2022-10-07T11:32:20.626Z,-23653.88
2022-10-07T11:34:56.857Z,-23657.53
2022-10-07T11:37:36.611Z,-23664.06
2022-10-07T11:40:07.849Z,-23664.31
2022-10-07T11:42:43.275Z,-23661.88
2022-10-07T11:45:35.025Z,-23657.03
2022-10-07T11:48:14.192Z,-23673.03
2022-10-07T11:50:47.130Z,-23674.97
2022-10-07T11:53:27.717Z,-23667.22
2022-10-07T11:56:01.023Z,-23673.53
2022-10-07T11:58:33.121Z,-23684.19
2022-10-07T12:01:30.651Z,-23691.97
2022-10-07T12:04:24.999Z,-23687.59
2022-10-07T12:07:29.509Z,-23690.03
2022-10-07T12:10:02.199Z,-23685.91
2022-10-07T12:12:44.898Z,-23692.94
2022-10-07T12:15:25.959Z,-23699.00
2022-10-07T12:17:56.511Z,-23690.50
2022-10-07T12:20:35.278Z,-23700.22
2022-10-07T12:23:17.043Z,-23693.91
2022-10-07T12:25:47.065Z,-23691.72
2022-10-07T12:28:26.309Z,-23688.81
2022-10-07T12:30:55.564Z,-23690.50
2022-10-07T12:33:56.423Z,-23693.91
2022-10-07T12:36:23.852Z,-23699.72
2022-10-07T12:38:59.419Z,-23708.47
2022-10-07T12:41:26.139Z,-23713.31
2022-10-07T12:44:17.837Z,-23715.25
2022-10-07T12:46:54.666Z,-23719.63
2022-10-07T12:49:33.092Z,-23733.22
2022-10-07T12:52:07.227Z,-23732.72
2022-10-07T12:54:39.607Z,-23728.34
2022-10-07T12:57:13.288Z,-23738.78
2022-10-07T12:59:49.747Z,-23745.84
2022-10-07T13:02:58.794Z,-23743.88
2022-10-07T13:05:34.130Z,-23747.78
2022-10-07T13:08:16.064Z,-23756.50
2022-10-07T13:11:24.475Z,-23747.78
2022-10-07T13:14:23.754Z,-23737.09
2022-10-07T13:16:59.198Z,-23727.88
2022-10-07T13:19:39.180Z,-23722.03
2022-10-07T13:22:15.347Z,-23727.41
2022-10-07T13:24:47.857Z,-23732.97
2022-10-07T13:27:18.820Z,-23731.28
2022-10-07T13:29:46.534Z,-23732.25
2022-10-07T13:32:21.771Z,-23742.19
2022-10-07T13:34:48.439Z,-23749.97
2022-10-07T13:37:38.382Z,-23740.50
2022-10-07T13:40:30.505Z,-23748.75
2022-10-07T13:43:02.167Z,-23750.69
2022-10-07T13:45:29.467Z,-23754.31
2022-10-07T13:47:57.768Z,-23769.13
2022-10-07T13:50:27.208Z,-23769.13
2022-10-07T13:52:56.021Z,-23764.75
2022-10-07T13:55:25.623Z,-23775.94
2022-10-07T13:57:57.527Z,-23787.09
2022-10-07T14:00:24.981Z,-23784.91
2022-10-07T14:02:52.378Z,-23787.09
2022-10-07T14:05:28.656Z,-23786.13
2022-10-07T14:08:00.299Z,-23786.13
2022-10-07T14:10:29.649Z,-23791.22
2022-10-07T14:13:03.301Z,-23795.34
2022-10-07T14:15:32.041Z,-23789.28
2022-10-07T14:18:07.236Z,-23791.69
2022-10-07T14:20:40.678Z,-23784.91
2022-10-07T14:23:19.936Z,-23783.19
2022-10-07T14:26:00.298Z,-23790.50
2022-10-07T14:28:29.917Z,-23798.03
2022-10-07T14:31:27.568Z,-23796.31
2022-10-07T14:34:15.481Z,-23794.38
2022-10-07T14:37:04.181Z,-23796.31
2022-10-07T14:40:00.134Z,-23797.78
2022-10-07T14:42:36.326Z,-23798.25
2022-10-07T14:45:05.146Z,-23797.53
2022-10-07T14:47:31.833Z,-23792.94
2022-10-07T14:50:02.346Z,-23794.13
2022-10-07T14:52:32.153Z,-23796.31
2022-10-07T14:55:04.804Z,-23800.69
2022-10-07T14:57:31.342Z,-23796.06
2022-10-07T14:59:57.821Z,-23786.13
2022-10-07T15:02:24.448Z,-23777.16
2022-10-07T15:04:51.008Z,-23788.06
2022-10-07T15:07:17.932Z,-23794.13
2022-10-07T15:09:46.014Z,-23807.00
2022-10-07T15:12:15.943Z,-23816.69
2022-10-07T15:14:42.892Z,-23824.72
2022-10-07T15:17:12.650Z,-23821.56
2022-10-07T15:19:39.175Z,-23828.59
2022-10-07T15:22:05.805Z,-23823.25
2022-10-07T15:24:33.297Z,-23814.28
2022-10-07T15:27:00.098Z,-23810.88
2022-10-07T15:29:26.830Z,-23816.22
2022-10-07T15:31:53.855Z,-23793.41
2022-10-07T15:34:20.514Z,-23790.25
2022-10-07T15:36:48.687Z,-23793.88
2022-10-07T15:39:15.494Z,-23801.66
2022-10-07T15:41:43.578Z,-23801.66
2022-10-07T15:44:22.348Z,-23810.16
2022-10-07T15:46:54.001Z,-23809.91
2022-10-07T15:49:20.850Z,-23799.97
2022-10-07T15:51:47.687Z,-23796.06
2022-10-07T15:54:14.995Z,-23795.34
2022-10-07T15:56:42.791Z,-23790.97
2022-10-07T15:59:10.260Z,-23784.44
2022-10-07T16:01:37.486Z,-23789.03
2022-10-07T16:04:05.520Z,-23781.03
2022-10-07T16:06:35.082Z,-23783.44
2022-10-07T16:09:02.011Z,-23776.19
2022-10-07T16:11:30.258Z,-23774.47
2022-10-07T16:14:03.110Z,-23768.66
2022-10-07T16:16:32.243Z,-23765.50
2022-10-07T16:19:00.145Z,-23762.34
2022-10-07T16:21:30.158Z,-23757.72
2022-10-07T16:24:02.407Z,-23754.31
2022-10-07T16:26:30.324Z,-23753.13
2022-10-07T16:29:18.294Z,-23756.50
2022-10-07T16:31:46.267Z,-23757.00
2022-10-07T16:34:14.867Z,-23755.78
2022-10-07T16:36:45.589Z,-23752.63
2022-10-07T16:39:12.755Z,-23750.94
2022-10-07T16:41:42.864Z,-23751.19
2022-10-07T16:44:09.681Z,-23748.50
2022-10-07T16:46:36.606Z,-23741.72
2022-10-07T16:49:05.970Z,-23739.03
2022-10-07T16:51:35.500Z,-23739.53
2022-10-07T16:54:12.645Z,-23740.50
2022-10-07T16:56:41.690Z,-23737.56
2022-10-07T16:59:10.434Z,-23734.44
2022-10-07T17:01:38.118Z,-23732.25
2022-10-07T17:04:05.698Z,-23726.91
2022-10-07T17:06:33.463Z,-23724.97
2022-10-07T17:09:04.651Z,-23712.59
2022-10-07T17:11:35.682Z,-23703.59
2022-10-07T17:14:16.628Z,-23702.16
2022-10-07T17:16:52.589Z,-23701.19
2022-10-07T17:19:21.257Z,-23702.16
2022-10-07T17:21:49.130Z,-23704.09
2022-10-07T17:24:17.600Z,-23701.66
2022-10-07T17:26:45.742Z,-23693.91
2022-10-07T17:29:16.597Z,-23686.13
2022-10-07T17:31:43.559Z,-23680.81
2022-10-07T17:34:11.823Z,-23680.81
2022-10-07T17:36:39.678Z,-23683.22
2022-10-07T17:39:06.416Z,-23683.94
2022-10-07T17:41:35.043Z,-23682.75
2022-10-07T17:44:04.164Z,-23679.34
2022-10-07T17:46:33.275Z,-23674.97
2022-10-07T17:49:02.155Z,-23672.56
2022-10-07T17:51:31.241Z,-23674.00
2022-10-07T17:53:59.909Z,-23671.34
2022-10-07T17:56:28.230Z,-23673.53
2022-10-07T17:58:55.500Z,-23676.69
2022-10-07T18:01:34.257Z,-23662.84
2022-10-07T18:04:06.036Z,-23668.19
2022-10-07T18:06:35.596Z,-23667.69
2022-10-07T18:09:04.842Z,-23665.03
2022-10-07T18:11:50.560Z,-23665.75
2022-10-07T18:14:35.714Z,-23661.66
2022-10-07T18:17:02.964Z,-23649.50
2022-10-07T18:19:29.721Z,-23649.25
2022-10-07T18:21:56.602Z,-23648.28
2022-10-07T18:24:28.972Z,-23645.38
2022-10-07T18:26:58.574Z,-23647.81
2022-10-07T18:29:34.433Z,-23647.81
2022-10-07T18:32:01.419Z,-23651.22
2022-10-07T18:34:28.002Z,-23651.69
2022-10-07T18:36:57.005Z,-23650.00
2022-10-07T18:39:27.154Z,-23640.78
2022-10-07T18:41:53.792Z,-23642.22
2022-10-07T18:44:20.359Z,-23641.75
2022-10-07T18:46:48.481Z,-23639.56
2022-10-07T18:49:15.101Z,-23638.09
2022-10-07T18:51:41.755Z,-23636.41
2022-10-07T18:54:09.705Z,-23629.38
2022-10-07T18:56:40.821Z,-23621.13
2022-10-07T18:59:09.753Z,-23620.66
2022-10-07T19:01:37.523Z,-23629.84
2022-10-07T19:04:04.613Z,-23634.47
2022-10-07T19:06:34.485Z,-23634.97
2022-10-07T19:09:06.979Z,-23630.84
2022-10-07T19:11:33.950Z,-23634.22
2022-10-07T19:14:00.918Z,-23636.16
2022-10-07T19:16:35.088Z,-23627.44
2022-10-07T19:19:04.906Z,-23623.06
2022-10-07T19:21:32.344Z,-23626.47
2022-10-07T19:24:01.433Z,-23613.38
2022-10-07T19:26:31.966Z,-23623.06
2022-10-07T19:28:58.500Z,-23615.56
2022-10-07T19:31:30.915Z,-23617.97
2022-10-07T19:34:18.033Z,-23616.28
2022-10-07T19:36:48.412Z,-23613.84
2022-10-07T19:39:17.987Z,-23609.00
2022-10-07T19:41:44.805Z,-23614.81
2022-10-07T19:44:12.344Z,-23614.34
2022-10-07T19:46:39.219Z,-23607.53
2022-10-07T19:49:07.188Z,-23609.72
2022-10-07T19:51:35.168Z,-23611.91
2022-10-07T19:54:03.982Z,-23596.63
2022-10-07T19:56:33.436Z,-23595.91
2022-10-07T19:59:02.547Z,-23590.81
2022-10-07T20:01:35.051Z,-23592.50
2022-10-07T20:04:07.060Z,-23598.31
2022-10-07T20:06:36.532Z,-23596.38
2022-10-07T20:09:05.666Z,-23592.75
2022-10-07T20:11:32.821Z,-23581.34
2022-10-07T20:13:59.985Z,-23583.28
2022-10-07T20:16:27.547Z,-23585.72
2022-10-07T20:19:01.135Z,-23586.69
2022-10-07T20:21:28.810Z,-23585.72
2022-10-07T20:23:55.450Z,-23588.38
2022-10-07T20:26:27.026Z,-23589.09
2022-10-07T20:28:55.905Z,-23588.63
2022-10-07T20:31:25.193Z,-23570.69
2022-10-07T20:33:54.074Z,-23559.53
2022-10-07T20:36:26.273Z,-23557.59
2022-10-07T20:39:15.824Z,-23558.78
2022-10-07T20:42:00.951Z,-23559.53
2022-10-07T20:44:27.754Z,-23565.09
2022-10-07T20:46:54.471Z,-23573.34
2022-10-07T20:49:24.095Z,-23576.25
2022-10-07T20:51:55.210Z,-23573.84
2022-10-07T20:54:23.532Z,-23577.47
2022-10-07T20:56:57.908Z,-23576.00
2022-10-07T20:59:29.068Z,-23581.09
2022-10-07T21:01:56.564Z,-23581.59
2022-10-07T21:04:27.207Z,-23585.97
2022-10-07T21:06:57.380Z,-23586.19
2022-10-07T21:09:25.221Z,-23585.97
2022-10-07T21:11:53.397Z,-23584.25
2022-10-07T21:14:20.160Z,-23585.22
2022-10-07T21:16:48.339Z,-23568.00
2022-10-07T21:19:15.738Z,-23553.69
2022-10-07T21:21:42.653Z,-23554.91
2022-10-07T21:24:09.139Z,-23557.34
2022-10-07T21:26:36.605Z,-23549.59
2022-10-07T21:29:05.138Z,-23549.34
2022-10-07T21:31:31.757Z,-23545.22
2022-10-07T21:33:59.568Z,-23540.38
2022-10-07T21:36:26.347Z,-23539.66
2022-10-07T21:38:58.670Z,-23542.78
2022-10-07T21:41:38.650Z,-23555.16
2022-10-07T21:44:10.245Z,-23544.97
2022-10-07T21:46:37.787Z,-23550.31
2022-10-07T21:49:06.277Z,-23554.44
2022-10-07T21:51:34.127Z,-23560.50
2022-10-07T21:54:01.971Z,-23567.28
2022-10-07T21:56:30.683Z,-23561.22
2022-10-07T21:59:03.976Z,-23565.59
2022-10-07T22:01:39.831Z,-23555.16
2022-10-07T22:04:13.646Z,-23545.22
2022-10-07T22:06:59.009Z,-23556.38
2022-10-07T22:09:25.988Z,-23550.81
2022-10-07T22:12:03.741Z,-23552.97
2022-10-07T22:14:30.330Z,-23556.63
2022-10-07T22:16:56.924Z,-23559.03
2022-10-07T22:19:26.582Z,-23544.50
2022-10-07T22:21:56.589Z,-23552.25
2022-10-07T22:24:24.116Z,-23546.91
2022-10-07T22:26:51.594Z,-23542.78
2022-10-07T22:29:19.746Z,-23543.03
2022-10-07T22:31:47.110Z,-23544.00
2022-10-07T22:34:33.991Z,-23547.63
2022-10-07T22:37:00.833Z,-23537.69
2022-10-07T22:39:28.845Z,-23544.00
2022-10-07T22:41:55.838Z,-23536.00
2022-10-07T22:44:22.394Z,-23536.25
2022-10-07T22:46:48.943Z,-23544.00
2022-10-07T22:49:15.498Z,-23548.38
2022-10-07T22:51:42.589Z,-23528.47
2022-10-07T22:54:12.480Z,-23536.97
2022-10-07T22:56:39.518Z,-23544.97
2022-10-07T22:59:08.016Z,-23537.69
2022-10-07T23:01:35.169Z,-23534.78
2022-10-07T23:04:03.510Z,-23542.06
2022-10-07T23:06:32.909Z,-23533.81
2022-10-07T23:09:00.409Z,-23520.72
2022-10-07T23:11:28.696Z,-23522.66
2022-10-07T23:13:56.322Z,-23521.69
2022-10-07T23:16:26.104Z,-23512.97
2022-10-07T23:18:53.764Z,-23533.34
2022-10-07T23:21:25.359Z,-23536.97
2022-10-07T23:23:53.752Z,-23539.41
2022-10-07T23:26:27.349Z,-23526.53
2022-10-07T23:28:56.016Z,-23521.94
2022-10-07T23:31:24.445Z,-23520.97
2022-10-07T23:33:52.340Z,-23520.25
2022-10-07T23:36:20.806Z,-23517.56
2022-10-07T23:38:48.747Z,-23521.22
2022-10-07T23:41:18.269Z,-23511.53
2022-10-07T23:43:44.745Z,-23507.63
2022-10-07T23:46:13.354Z,-23505.69
2022-10-07T23:48:41.735Z,-23499.88
2022-10-07T23:51:14.117Z,-23505.22
2022-10-07T23:53:40.811Z,-23508.59
2022-10-07T23:56:07.927Z,-23520.25
2022-10-07T23:58:36.352Z,-23518.53
